createdAt,value
2017-08-19T00:00:03.954Z,83.60
2017-08-19T00:02:34.566Z,83.60
2017-08-19T00:05:05.120Z,83.20
2017-08-19T00:07:35.507Z,83.20
2017-08-19T00:10:06.052Z,83.40
2017-08-19T00:12:37.282Z,83.70
2017-08-19T00:15:07.612Z,83.70
2017-08-19T00:17:37.896Z,83.60
2017-08-19T00:20:08.414Z,83.70
2017-08-19T00:22:38.885Z,83.30
2017-08-19T00:25:09.304Z,83.20
2017-08-19T00:27:39.711Z,83.30
2017-08-19T00:30:10.176Z,82.80
2017-08-19T00:32:41.072Z,82.50
2017-08-19T00:35:11.538Z,81.90
2017-08-19T00:37:41.810Z,81.50
2017-08-19T00:40:12.467Z,81.10
2017-08-19T00:42:42.787Z,80.10
2017-08-19T00:45:13.147Z,79.60
2017-08-19T00:47:43.664Z,79.30
2017-08-19T00:50:14.072Z,78.50
2017-08-19T00:52:44.590Z,78.10
2017-08-19T00:55:15.253Z,77.50
2017-08-19T00:57:45.661Z,77.10
2017-08-19T01:00:16.297Z,76.50
2017-08-19T01:02:46.475Z,75.60
2017-08-19T01:05:16.912Z,74.90
2017-08-19T01:07:47.204Z,74.90
2017-08-19T01:10:18.672Z,74.90
2017-08-19T01:12:49.110Z,74.50
2017-08-19T01:15:19.692Z,74.50
2017-08-19T01:17:50.010Z,74.20
2017-08-19T01:20:20.531Z,74.10
2017-08-19T01:22:50.951Z,73.90
2017-08-19T01:25:32.995Z,73.00
2017-08-19T01:28:03.528Z,73.00
2017-08-19T01:30:33.966Z,72.00
2017-08-19T01:33:04.878Z,72.00
2017-08-19T01:35:35.370Z,72.10
2017-08-19T01:38:05.918Z,71.30
2017-08-19T01:40:37.182Z,71.70
2017-08-19T01:43:07.595Z,71.70
2017-08-19T01:45:38.151Z,71.00
2017-08-19T01:48:08.544Z,70.70
2017-08-19T01:50:39.571Z,69.30
2017-08-19T01:53:10.150Z,69.20
2017-08-19T01:55:40.627Z,67.00
2017-08-19T01:58:11.294Z,64.80
2017-08-19T02:00:41.788Z,65.20
2017-08-19T02:03:12.172Z,64.70
2017-08-19T02:05:42.486Z,63.20
2017-08-19T02:08:12.924Z,63.60
2017-08-19T02:10:43.116Z,63.50
2017-08-19T02:13:13.558Z,64.00
2017-08-19T02:15:44.022Z,64.30
2017-08-19T02:18:14.575Z,64.40
2017-08-19T02:20:45.164Z,64.00
2017-08-19T02:23:15.800Z,65.30
2017-08-19T02:25:46.157Z,65.00
2017-08-19T02:28:16.540Z,65.70
2017-08-19T02:30:47.806Z,67.10
2017-08-19T02:33:18.915Z,67.10
2017-08-19T02:35:49.960Z,67.30
2017-08-19T02:38:21.272Z,68.10
2017-08-19T02:40:51.672Z,67.60
2017-08-19T02:43:22.193Z,68.10
2017-08-19T02:45:52.604Z,67.30
2017-08-19T02:48:23.738Z,66.50
2017-08-19T02:50:55.350Z,66.30
2017-08-19T02:53:25.951Z,66.30
2017-08-19T02:55:56.837Z,66.40
2017-08-19T02:58:27.350Z,66.50
2017-08-19T03:00:57.865Z,66.60
2017-08-19T03:03:28.243Z,64.50
2017-08-19T03:05:58.750Z,63.40
2017-08-19T03:08:29.352Z,63.60
2017-08-19T03:10:59.980Z,61.70
2017-08-19T03:13:30.611Z,60.90
2017-08-19T03:16:01.248Z,60.40
2017-08-19T03:18:31.886Z,60.10
2017-08-19T03:21:02.319Z,60.10
2017-08-19T03:23:32.870Z,59.90
2017-08-19T03:26:03.358Z,59.40
2017-08-19T03:28:33.787Z,58.50
2017-08-19T03:31:04.277Z,58.90
2017-08-19T03:33:35.083Z,58.10
2017-08-19T03:36:05.606Z,57.00
2017-08-19T03:38:35.996Z,57.70
2017-08-19T03:41:07.279Z,58.90
2017-08-19T03:43:37.740Z,58.90
2017-08-19T03:46:08.256Z,59.20
2017-08-19T03:48:38.752Z,59.30
2017-08-19T03:51:09.361Z,58.80
2017-08-19T03:53:40.547Z,57.40
2017-08-19T03:56:11.001Z,57.10
2017-08-19T03:58:41.469Z,57.80
2017-08-19T04:01:12.563Z,57.10
2017-08-19T04:03:43.079Z,57.10
2017-08-19T04:06:13.578Z,56.50
2017-08-19T04:08:44.127Z,56.60
2017-08-19T04:11:14.612Z,56.40
2017-08-19T04:13:44.924Z,56.30
2017-08-19T04:16:15.058Z,56.40
2017-08-19T04:18:45.605Z,56.40
2017-08-19T04:21:15.996Z,56.40
2017-08-19T04:23:46.347Z,55.40
2017-08-19T04:26:16.584Z,56.50
2017-08-19T04:28:46.884Z,58.00
2017-08-19T04:31:17.336Z,58.40
2017-08-19T04:33:48.196Z,59.10
2017-08-19T04:36:19.639Z,58.40
2017-08-19T04:38:50.097Z,58.40
2017-08-19T04:41:21.191Z,58.90
2017-08-19T04:43:52.363Z,59.00
2017-08-19T04:46:24.327Z,58.10
2017-08-19T04:48:55.363Z,58.00
2017-08-19T04:51:26.567Z,58.40
2017-08-19T04:53:57.702Z,56.10
2017-08-19T04:56:28.862Z,55.60
2017-08-19T04:59:00.144Z,55.10
2017-08-19T05:01:31.451Z,54.00
2017-08-19T05:04:02.478Z,54.80
2017-08-19T05:06:33.617Z,56.00
2017-08-19T05:09:04.797Z,55.70
2017-08-19T05:11:35.270Z,55.50
2017-08-19T05:14:06.449Z,54.30
2017-08-19T05:16:36.855Z,54.30
2017-08-19T05:19:07.421Z,54.20
2017-08-19T05:21:38.036Z,54.10
2017-08-19T05:24:08.455Z,56.10
2017-08-19T05:26:38.948Z,56.70
2017-08-19T05:29:09.502Z,55.90
2017-08-19T05:31:39.878Z,57.40
2017-08-19T05:34:10.385Z,56.80
2017-08-19T05:36:40.783Z,55.70
2017-08-19T05:39:12.156Z,55.80
2017-08-19T05:41:42.543Z,55.80
2017-08-19T05:44:12.793Z,56.30
2017-08-19T05:46:44.052Z,55.60
2017-08-19T05:49:14.489Z,55.60
2017-08-19T05:51:45.025Z,55.90
2017-08-19T05:54:15.567Z,55.30
2017-08-19T05:56:46.105Z,55.90
2017-08-19T05:59:16.594Z,56.40
2017-08-19T06:01:47.038Z,55.50
2017-08-19T06:04:17.523Z,56.30
2017-08-19T06:06:47.779Z,55.50
2017-08-19T06:09:18.216Z,54.80
2017-08-19T06:11:48.804Z,56.20
2017-08-19T06:14:19.290Z,55.10
2017-08-19T06:16:49.851Z,55.50
2017-08-19T06:19:20.391Z,55.20
2017-08-19T06:21:50.882Z,55.00
2017-08-19T06:24:21.311Z,55.60
2017-08-19T06:26:51.839Z,55.50
2017-08-19T06:29:22.331Z,56.70
2017-08-19T06:31:52.844Z,56.50
2017-08-19T06:34:23.616Z,56.20
2017-08-19T06:36:54.212Z,56.70
2017-08-19T06:39:24.753Z,56.20
2017-08-19T06:41:55.338Z,56.40
2017-08-19T06:44:26.072Z,56.30
2017-08-19T06:46:56.429Z,56.70
2017-08-19T06:49:26.988Z,56.80
2017-08-19T06:51:57.420Z,56.60
2017-08-19T06:54:28.519Z,57.50
2017-08-19T06:56:58.926Z,57.20
2017-08-19T06:59:29.453Z,58.00
2017-08-19T07:01:59.876Z,58.20
2017-08-19T07:04:30.480Z,58.30
2017-08-19T07:07:01.079Z,58.90
2017-08-19T07:09:31.483Z,58.60
2017-08-19T07:12:02.121Z,59.00
2017-08-19T07:14:32.457Z,59.40
2017-08-19T07:17:02.960Z,59.70
2017-08-19T07:19:33.492Z,59.20
2017-08-19T07:22:03.987Z,59.00
2017-08-19T07:24:34.692Z,58.70
2017-08-19T07:27:05.155Z,57.70
2017-08-19T07:29:36.250Z,58.00
2017-08-19T07:32:06.727Z,57.70
2017-08-19T07:34:40.429Z,57.90
2017-08-19T07:37:14.025Z,57.60
2017-08-19T07:39:44.572Z,57.10
2017-08-19T07:42:18.647Z,54.10
2017-08-19T07:44:53.558Z,54.40
2017-08-19T07:47:25.196Z,55.50
2017-08-19T07:49:58.846Z,54.10
2017-08-19T07:52:31.995Z,53.70
2017-08-19T07:55:06.099Z,54.30
2017-08-19T07:57:37.349Z,54.60
2017-08-19T08:00:07.815Z,54.50
2017-08-19T08:02:38.212Z,55.00
2017-08-19T08:05:08.670Z,55.10
2017-08-19T08:07:39.036Z,55.00
2017-08-19T08:10:09.531Z,54.50
2017-08-19T08:12:40.072Z,55.00
2017-08-19T08:15:10.682Z,55.80
2017-08-19T08:17:41.162Z,56.10
2017-08-19T08:20:11.435Z,56.40
2017-08-19T08:22:41.884Z,56.00
2017-08-19T08:25:12.415Z,55.90
2017-08-19T08:27:42.598Z,56.30
2017-08-19T08:30:12.936Z,56.20
2017-08-19T08:32:43.316Z,57.10
2017-08-19T08:35:14.147Z,57.90
2017-08-19T08:37:44.718Z,57.40
2017-08-19T08:40:15.986Z,56.10
2017-08-19T08:42:46.371Z,56.10
2017-08-19T08:45:18.520Z,56.70
2017-08-19T08:47:48.767Z,56.60
2017-08-19T08:50:19.239Z,56.50
2017-08-19T08:52:49.543Z,56.70
2017-08-19T08:55:21.012Z,55.70
2017-08-19T08:57:51.645Z,55.70
2017-08-19T09:00:22.172Z,55.30
2017-08-19T09:02:52.609Z,55.50
2017-08-19T09:05:23.143Z,55.50
2017-08-19T09:07:53.675Z,56.30
2017-08-19T09:10:24.051Z,57.10
2017-08-19T09:12:54.524Z,56.90
2017-08-19T09:15:24.982Z,56.90
2017-08-19T09:17:55.360Z,56.80
2017-08-19T09:20:25.707Z,57.40
2017-08-19T09:22:56.301Z,57.70
2017-08-19T09:25:26.936Z,57.70
2017-08-19T09:27:58.171Z,58.40
2017-08-19T09:30:28.381Z,58.30
2017-08-19T09:32:58.810Z,58.80
2017-08-19T09:35:30.392Z,61.00
2017-08-19T09:38:01.586Z,59.40
2017-08-19T09:40:32.068Z,59.70
2017-08-19T09:43:02.703Z,61.10
2017-08-19T09:45:33.258Z,60.80
2017-08-19T09:48:03.785Z,62.10
2017-08-19T09:50:34.102Z,62.00
2017-08-19T09:53:05.700Z,61.30
2017-08-19T09:55:36.417Z,61.50
2017-08-19T09:58:06.718Z,61.80
2017-08-19T10:00:38.035Z,61.50
2017-08-19T10:03:08.642Z,61.50
2017-08-19T10:05:39.097Z,60.90
2017-08-19T10:08:14.922Z,60.60
2017-08-19T10:10:45.912Z,60.90
2017-08-19T10:13:16.400Z,61.30
2017-08-19T10:15:46.955Z,61.10
2017-08-19T10:18:17.307Z,61.40
2017-08-19T10:20:48.550Z,62.10
2017-08-19T10:23:19.724Z,62.90
2017-08-19T10:25:50.378Z,63.00
2017-08-19T10:28:20.766Z,63.10
2017-08-19T10:30:51.864Z,62.90
2017-08-19T10:33:22.260Z,62.90
2017-08-19T10:35:53.103Z,63.30
2017-08-19T10:38:24.756Z,63.60
2017-08-19T10:40:55.271Z,64.10
2017-08-19T10:43:25.871Z,64.00
2017-08-19T10:45:56.397Z,63.80
2017-08-19T10:48:26.993Z,64.20
2017-08-19T10:50:57.450Z,64.10
2017-08-19T10:53:28.117Z,64.60
2017-08-19T10:55:59.492Z,64.20
2017-08-19T10:58:30.076Z,64.20
2017-08-19T11:01:00.656Z,64.00
2017-08-19T11:03:31.246Z,63.10
2017-08-19T11:06:01.560Z,62.70
2017-08-19T11:08:31.921Z,62.30
2017-08-19T11:11:03.206Z,63.40
2017-08-19T11:13:33.618Z,63.30
2017-08-19T11:16:04.149Z,63.30
2017-08-19T11:18:34.654Z,63.40
2017-08-19T11:21:05.886Z,64.20
2017-08-19T11:23:36.286Z,64.10
2017-08-19T11:26:06.788Z,64.30
2017-08-19T11:28:37.436Z,64.80
2017-08-19T11:31:08.062Z,65.10
2017-08-19T11:33:38.698Z,65.00
2017-08-19T11:36:09.616Z,65.50
2017-08-19T11:38:40.271Z,65.00
2017-08-19T11:41:10.743Z,65.10
2017-08-19T11:43:41.099Z,65.30
2017-08-19T11:46:12.604Z,65.40
2017-08-19T11:48:43.201Z,65.40
2017-08-19T11:51:13.845Z,65.80
2017-08-19T11:53:44.467Z,65.60
2017-08-19T11:56:15.113Z,65.90
2017-08-19T11:58:45.754Z,65.90
2017-08-19T12:01:16.164Z,66.10
2017-08-19T12:03:46.587Z,66.10
2017-08-19T12:06:16.939Z,66.30
2017-08-19T12:08:47.403Z,66.30
2017-08-19T12:11:17.968Z,66.60
2017-08-19T12:13:48.634Z,66.60
2017-08-19T12:16:19.208Z,66.90
2017-08-19T12:18:49.583Z,67.10
2017-08-19T12:21:20.325Z,67.50
2017-08-19T12:23:50.821Z,67.90
2017-08-19T12:28:59.697Z,68.20
2017-08-19T12:31:30.296Z,68.30
2017-08-19T12:34:01.578Z,68.90
2017-08-19T12:36:32.103Z,68.90
2017-08-19T12:39:02.566Z,69.10
2017-08-19T12:41:32.848Z,69.50
2017-08-19T12:44:03.421Z,69.70
2017-08-19T12:46:33.809Z,69.70
2017-08-19T12:49:04.555Z,70.10
2017-08-19T12:51:34.810Z,70.00
2017-08-19T12:54:05.193Z,69.80
2017-08-19T12:56:35.592Z,70.40
2017-08-19T12:59:06.194Z,70.90
2017-08-19T13:01:36.647Z,71.50
2017-08-19T13:04:06.995Z,71.50
2017-08-19T13:06:38.579Z,71.30
2017-08-19T13:09:09.223Z,71.30
2017-08-19T13:11:39.927Z,71.50
2017-08-19T13:14:10.561Z,72.10
2017-08-19T13:16:41.010Z,72.50
2017-08-19T13:19:11.657Z,72.70
2017-08-19T13:21:42.339Z,73.00
2017-08-19T13:24:12.720Z,73.20
2017-08-19T13:26:43.421Z,70.70
2017-08-19T13:29:14.274Z,70.80
2017-08-19T13:31:44.697Z,70.70
2017-08-19T13:34:15.304Z,71.00
2017-08-19T13:36:47.022Z,71.30
2017-08-19T13:39:17.642Z,71.30
2017-08-19T13:41:48.332Z,71.10
2017-08-19T13:44:18.902Z,71.60
2017-08-19T13:46:49.387Z,71.90
2017-08-19T13:49:19.929Z,72.00
2017-08-19T13:51:51.781Z,72.30
2017-08-19T13:54:23.098Z,72.60
2017-08-19T13:56:53.765Z,72.60
2017-08-19T13:59:25.115Z,72.80
2017-08-19T14:01:56.398Z,72.40
2017-08-19T14:04:26.769Z,72.40
2017-08-19T14:06:57.334Z,72.30
2017-08-19T14:09:27.947Z,71.50
2017-08-19T14:11:58.592Z,71.80
2017-08-19T14:14:35.675Z,72.00
2017-08-19T14:17:06.998Z,72.80
2017-08-19T14:19:37.424Z,72.10
2017-08-19T14:22:07.981Z,72.30
2017-08-19T14:24:38.438Z,72.60
2017-08-19T14:27:08.947Z,72.60
2017-08-19T14:29:39.573Z,72.40
2017-08-19T14:32:10.676Z,73.80
2017-08-19T14:34:41.286Z,73.80
2017-08-19T14:37:12.016Z,74.20
2017-08-19T14:39:42.555Z,74.50
2017-08-19T14:42:13.184Z,74.80
2017-08-19T14:44:43.725Z,74.90
2017-08-19T14:47:14.326Z,74.10
2017-08-19T14:49:44.984Z,74.40
2017-08-19T14:52:15.415Z,74.20
2017-08-19T14:54:45.841Z,74.10
2017-08-19T14:57:16.359Z,74.20
2017-08-19T14:59:46.689Z,74.80
2017-08-19T15:02:17.169Z,74.90
2017-08-19T15:04:47.694Z,75.20
2017-08-19T15:07:17.991Z,75.60
2017-08-19T15:09:48.452Z,76.00
2017-08-19T15:12:18.826Z,76.40
2017-08-19T15:14:49.431Z,76.50
2017-08-19T15:17:20.242Z,76.60
2017-08-19T15:19:50.835Z,76.80
2017-08-19T15:22:21.444Z,76.90
2017-08-19T15:24:53.089Z,76.10
2017-08-19T15:27:23.519Z,76.00
2017-08-19T15:29:54.073Z,75.50
2017-08-19T15:32:24.311Z,74.90
2017-08-19T15:34:54.931Z,74.50
2017-08-19T15:37:25.850Z,74.20
2017-08-19T15:39:57.837Z,73.50
2017-08-19T15:42:28.480Z,73.20
2017-08-19T15:44:58.999Z,73.10
2017-08-19T15:47:29.746Z,72.80
2017-08-19T15:50:00.574Z,72.80
2017-08-19T15:52:31.112Z,72.30
2017-08-19T15:55:01.724Z,72.10
2017-08-19T15:57:32.915Z,71.70
2017-08-19T16:00:03.188Z,71.70
2017-08-19T16:02:34.559Z,72.30
2017-08-19T16:05:04.871Z,72.30
2017-08-19T16:07:36.031Z,72.50
2017-08-19T16:10:07.471Z,72.80
2017-08-19T16:12:41.273Z,73.20
2017-08-19T16:15:13.960Z,73.30
2017-08-19T16:17:46.125Z,73.30
2017-08-19T16:20:17.452Z,73.30
2017-08-19T16:22:47.785Z,73.30
2017-08-19T16:25:18.479Z,73.40
2017-08-19T16:27:48.797Z,73.50
2017-08-19T16:30:19.359Z,73.60
2017-08-19T16:32:49.648Z,73.60
2017-08-19T16:35:20.124Z,73.40
2017-08-19T16:37:50.972Z,73.00
2017-08-19T16:40:21.279Z,73.40
2017-08-19T16:42:51.599Z,73.80
2017-08-19T16:45:22.073Z,73.80
2017-08-19T16:47:53.112Z,73.70
2017-08-19T16:50:24.444Z,74.40
2017-08-19T16:52:54.826Z,73.70
2017-08-19T16:55:25.255Z,73.80
2017-08-19T16:57:55.727Z,73.90
2017-08-19T17:00:26.204Z,74.00
2017-08-19T17:02:56.688Z,74.20
2017-08-19T17:05:26.951Z,74.20
2017-08-19T17:07:58.140Z,74.30
2017-08-19T17:10:28.462Z,74.30
2017-08-19T17:12:58.859Z,74.40
2017-08-19T17:15:29.260Z,74.50
2017-08-19T17:18:00.544Z,74.80
2017-08-19T17:20:30.931Z,74.70
2017-08-19T17:23:02.219Z,74.90
2017-08-19T17:25:32.802Z,74.80
2017-08-19T17:28:03.311Z,74.60
2017-08-19T17:30:33.721Z,74.50
2017-08-19T17:33:04.327Z,74.40
2017-08-19T17:35:34.852Z,74.50
2017-08-19T17:38:05.931Z,74.40
2017-08-19T17:40:36.100Z,74.70
2017-08-19T17:43:07.141Z,76.10
2017-08-19T17:45:37.617Z,76.00
2017-08-19T17:48:08.149Z,76.90
2017-08-19T17:50:38.723Z,77.00
2017-08-19T17:53:09.124Z,77.00
2017-08-19T17:55:39.797Z,77.10
2017-08-19T17:58:10.313Z,77.30
2017-08-19T18:00:40.751Z,76.80
2017-08-19T18:03:11.238Z,76.00
2017-08-19T18:08:18.597Z,75.30
2017-08-19T18:10:50.048Z,75.10
2017-08-19T18:13:21.355Z,75.20
2017-08-19T18:15:52.047Z,75.20
2017-08-19T18:18:22.663Z,75.30
2017-08-19T18:20:53.163Z,75.60
2017-08-19T18:23:23.691Z,76.30
2017-08-19T18:25:54.107Z,77.40
2017-08-19T18:28:24.664Z,77.70
2017-08-19T18:30:54.961Z,78.10
2017-08-19T18:33:25.381Z,78.30
2017-08-19T18:35:55.864Z,78.10
2017-08-19T18:38:27.417Z,77.90
2017-08-19T18:40:57.899Z,77.00
2017-08-19T18:43:28.415Z,76.40
2017-08-19T18:45:58.916Z,75.80
2017-08-19T18:48:30.138Z,76.20
2017-08-19T18:51:00.641Z,75.70
2017-08-19T18:53:31.038Z,75.80
2017-08-19T18:56:01.605Z,75.90
2017-08-19T18:58:31.985Z,76.00
2017-08-19T19:01:03.267Z,75.70
2017-08-19T19:03:33.709Z,75.70
2017-08-19T19:06:04.141Z,75.80
2017-08-19T19:08:34.630Z,76.10
2017-08-19T19:11:05.146Z,76.80
2017-08-19T19:13:36.435Z,78.10
2017-08-19T19:16:07.056Z,78.10
2017-08-19T19:18:37.379Z,79.20
2017-08-19T19:21:07.861Z,79.90
2017-08-19T19:23:38.438Z,80.30
2017-08-19T19:26:08.911Z,80.80
2017-08-19T19:28:39.282Z,81.00
2017-08-19T19:31:10.382Z,81.20
2017-08-19T19:33:40.691Z,81.10
2017-08-19T19:36:10.981Z,81.10
2017-08-19T19:38:42.700Z,80.40
2017-08-19T19:41:13.291Z,80.40
2017-08-19T19:43:43.799Z,80.20
2017-08-19T19:46:15.042Z,79.60
2017-08-19T19:48:46.329Z,79.00
2017-08-19T19:51:16.749Z,79.00
2017-08-19T19:53:47.376Z,79.40
2017-08-19T19:56:18.014Z,80.00
2017-08-19T19:58:48.435Z,80.50
2017-08-19T20:01:18.922Z,80.40
2017-08-19T20:03:49.478Z,80.40
2017-08-19T20:06:20.651Z,80.60
2017-08-19T20:08:51.036Z,80.60
2017-08-19T20:11:21.552Z,80.80
2017-08-19T20:13:51.764Z,81.50
2017-08-19T20:16:22.188Z,81.40
2017-08-19T20:18:52.601Z,80.00
2017-08-19T20:21:23.020Z,79.20
2017-08-19T20:23:53.858Z,78.50
2017-08-19T20:26:24.820Z,78.40
2017-08-19T20:28:55.233Z,78.80
2017-08-19T20:31:25.688Z,79.50
2017-08-19T20:33:56.252Z,80.50
2017-08-19T20:36:27.330Z,81.50
2017-08-19T20:38:58.405Z,81.50
2017-08-19T20:41:28.807Z,80.80
2017-08-19T20:43:59.247Z,81.50
2017-08-19T20:46:29.539Z,80.90
2017-08-19T20:49:00.067Z,81.70
2017-08-19T20:51:30.651Z,82.30
2017-08-19T20:54:01.228Z,82.50
2017-08-19T20:56:32.502Z,83.00
2017-08-19T20:59:03.087Z,82.90
2017-08-19T21:01:33.476Z,82.80
2017-08-19T21:04:04.110Z,82.60
2017-08-19T21:06:34.320Z,82.40
2017-08-19T21:09:04.848Z,81.60
2017-08-19T21:11:35.281Z,81.10
2017-08-19T21:14:05.796Z,81.90
2017-08-19T21:16:36.289Z,82.70
2017-08-19T21:19:06.816Z,82.90
2017-08-19T21:21:37.312Z,83.10
2017-08-19T21:24:07.870Z,83.10
2017-08-19T21:26:38.308Z,82.30
2017-08-19T21:29:08.980Z,82.60
2017-08-19T21:31:39.316Z,83.10
2017-08-19T21:34:09.859Z,83.50
2017-08-19T21:36:40.258Z,83.30
2017-08-19T21:39:10.944Z,83.80
2017-08-19T21:41:41.310Z,84.10
2017-08-19T21:44:12.477Z,84.20
2017-08-19T21:46:42.948Z,84.20
2017-08-19T21:49:13.404Z,84.70
2017-08-19T21:51:43.855Z,85.10
2017-08-19T21:54:14.438Z,85.20
2017-08-19T21:56:45.029Z,85.40
2017-08-19T21:59:15.555Z,85.60
2017-08-19T22:01:46.099Z,85.40
2017-08-19T22:04:16.724Z,85.40
2017-08-19T22:06:47.223Z,85.40
2017-08-19T22:09:17.746Z,85.10
2017-08-19T22:11:48.094Z,84.30
2017-08-19T22:14:19.394Z,83.70
2017-08-19T22:16:49.926Z,83.70
2017-08-19T22:19:20.248Z,83.80
2017-08-19T22:21:50.731Z,84.10
2017-08-19T22:24:21.952Z,84.40
2017-08-19T22:26:52.142Z,84.40
2017-08-19T22:29:22.737Z,84.40
2017-08-19T22:31:53.328Z,84.70
2017-08-19T22:34:23.782Z,84.60
2017-08-19T22:36:54.981Z,85.20
2017-08-19T22:39:25.816Z,85.10
2017-08-19T22:41:56.206Z,85.20
2017-08-19T22:44:27.359Z,83.10
2017-08-19T22:46:57.713Z,83.10
2017-08-19T22:49:28.233Z,82.10
2017-08-19T22:51:58.804Z,81.70
2017-08-19T22:54:29.369Z,82.00
2017-08-19T22:57:00.621Z,82.50
2017-08-19T22:59:31.105Z,82.40
2017-08-19T23:02:01.667Z,82.40
2017-08-19T23:04:32.758Z,82.30
2017-08-19T23:07:03.251Z,82.30
2017-08-19T23:09:34.470Z,83.20
2017-08-19T23:12:04.833Z,83.20
2017-08-19T23:14:35.245Z,83.40
2017-08-19T23:17:06.728Z,83.60
2017-08-19T23:19:37.251Z,83.60
2017-08-19T23:22:07.696Z,83.80
2017-08-19T23:24:38.119Z,83.30
2017-08-19T23:27:08.692Z,82.80
2017-08-19T23:29:39.217Z,82.20
2017-08-19T23:32:09.604Z,82.20
2017-08-19T23:34:40.037Z,82.60
2017-08-19T23:37:10.536Z,83.00
2017-08-19T23:39:42.103Z,83.40
2017-08-19T23:42:13.179Z,83.20
2017-08-19T23:44:43.760Z,83.10
2017-08-19T23:47:14.443Z,83.00
2017-08-19T23:49:45.056Z,81.60
2017-08-19T23:52:15.717Z,81.30
2017-08-19T23:54:46.354Z,82.00
2017-08-19T23:57:16.835Z,82.50
2017-08-19T23:59:48.194Z,83.10
